Time;durP1;ratioP1;P1;durP2;ratioP2;P2;SDS_P1;SDS_P2;PMS_P1;PMS_P2;Temp;Humidity;BMP_temperature;BMP_pressure;BME280_temperature;BME280_humidity;BME280_pressure;Samples;Min_cycle;Max_cycle;Signal;HPM_P1;HPM_P2
2021/07/20 00:02:12;;;;;;;5.25;3.90;;;;;;;;;;5024381;28;20040;-78
2021/07/20 00:04:57;;;;;;;5.53;4.00;;;;;;;;;;5026190;28;20532;-77
2021/07/20 00:07:41;;;;;;;4.45;3.75;;;;;;;;;;5020166;28;20044;-77
2021/07/20 00:10:45;;;;;;;5.72;3.90;;;;;;;;;;5019174;28;20048;-78
2021/07/20 00:13:30;;;;;;;4.85;3.60;;;;;;;;;;5022123;28;20052;-77
2021/07/20 00:16:15;;;;;;;5.22;3.45;;;;;;;;;;5021110;28;20449;-78
2021/07/20 00:18:59;;;;;;;5.07;3.90;;;;;;;;;;5019141;28;20091;-76
2021/07/20 00:21:44;;;;;;;5.40;3.45;;;;;;;;;;5009243;28;20091;-77
2021/07/20 00:24:28;;;;;;;5.25;3.95;;;;;;;;;;5022160;28;20040;-78
2021/07/20 00:27:13;;;;;;;4.60;3.83;;;;;;;;;;5023538;28;20099;-77
2021/07/20 00:29:58;;;;;;;6.70;3.72;;;;;;;;;;5033496;28;20082;-77
2021/07/20 00:32:42;;;;;;;4.40;3.55;;;;;;;;;;5023729;28;20103;-77
2021/07/20 00:35:27;;;;;;;4.53;3.72;;;;;;;;;;5020526;28;20059;-77
2021/07/20 00:38:13;;;;;;;5.43;4.03;;;;;;;;;;5022600;28;20047;-77
2021/07/20 00:40:57;;;;;;;5.30;3.70;;;;;;;;;;5036218;28;20048;-77
2021/07/20 00:43:41;;;;;;;4.65;3.80;;;;;;;;;;5022445;28;20044;-77
2021/07/20 00:46:26;;;;;;;4.80;3.70;;;;;;;;;;5027808;28;20043;-78
2021/07/20 00:49:11;;;;;;;5.70;3.50;;;;;;;;;;5008052;28;20072;-77
2021/07/20 00:51:55;;;;;;;4.60;3.60;;;;;;;;;;5009509;28;20405;-77
2021/07/20 00:54:40;;;;;;;5.75;3.50;;;;;;;;;;5020795;28;20759;-77
2021/07/20 00:57:25;;;;;;;4.72;3.58;;;;;;;;;;5009350;28;20052;-78
2021/07/20 01:00:10;;;;;;;4.82;3.80;;;;;;;;;;5009674;28;20079;-77
2021/07/20 01:02:55;;;;;;;4.55;3.53;;;;;;;;;;5018510;28;20076;-77
2021/07/20 01:05:40;;;;;;;4.70;3.50;;;;;;;;;;5033669;28;20048;-78
2021/07/20 01:08:24;;;;;;;5.13;3.67;;;;;;;;;;5009433;28;20039;-78
2021/07/20 01:11:09;;;;;;;4.15;3.42;;;;;;;;;;5022848;28;20067;-77
2021/07/20 01:13:53;;;;;;;4.55;3.38;;;;;;;;;;5023198;28;20056;-77
2021/07/20 01:16:38;;;;;;;5.35;3.78;;;;;;;;;;5022638;28;20044;-78
2021/07/20 01:19:23;;;;;;;4.43;3.40;;;;;;;;;;5022946;28;20048;-77
2021/07/20 01:22:07;;;;;;;5.68;3.78;;;;;;;;;;5021819;28;20106;-77
2021/07/20 01:24:52;;;;;;;5.53;3.50;;;;;;;;;;5022269;28;20100;-78
2021/07/20 01:27:38;;;;;;;4.63;3.70;;;;;;;;;;5008661;28;20509;-77
2021/07/20 01:30:23;;;;;;;3.80;3.28;;;;;;;;;;5007675;28;20087;-77
2021/07/20 01:33:07;;;;;;;4.50;3.67;;;;;;;;;;5010124;28;20075;-77
2021/07/20 01:35:52;;;;;;;4.45;3.08;;;;;;;;;;5007052;28;20048;-79
2021/07/20 01:38:36;;;;;;;4.22;3.05;;;;;;;;;;5023040;28;20084;-78
2021/07/20 01:41:21;;;;;;;4.10;3.50;;;;;;;;;;5008818;28;20106;-78
2021/07/20 01:44:07;;;;;;;3.72;2.90;;;;;;;;;;5022555;28;20032;-78
2021/07/20 01:46:51;;;;;;;3.65;3.15;;;;;;;;;;5024198;28;20068;-78
2021/07/20 01:49:35;;;;;;;4.10;3.13;;;;;;;;;;5022951;28;20079;-77
2021/07/20 01:52:20;;;;;;;3.88;3.13;;;;;;;;;;5021804;28;20425;-78
2021/07/20 01:55:05;;;;;;;4.72;3.10;;;;;;;;;;5022228;28;20837;-77
2021/07/20 01:57:50;;;;;;;3.67;3.00;;;;;;;;;;5018002;28;20107;-78
2021/07/20 02:00:34;;;;;;;3.55;2.90;;;;;;;;;;5022147;28;20091;-78
2021/07/20 02:09:23;;;;;;;3.65;2.90;;;;;;;;;;5016147;28;20052;-77
2021/07/20 02:12:14;;;;;;;4.88;3.25;;;;;;;;;;5025266;28;20410;-78
2021/07/20 02:14:58;;;;;;;3.95;2.85;;;;;;;;;;5025234;28;20168;-76
2021/07/20 02:17:43;;;;;;;3.42;2.80;;;;;;;;;;5012274;28;20072;-76
2021/07/20 02:20:28;;;;;;;4.40;3.00;;;;;;;;;;5024729;28;20052;-76
2021/07/20 02:23:12;;;;;;;4.60;2.75;;;;;;;;;;5017735;28;20052;-76
2021/07/20 02:25:57;;;;;;;3.03;2.58;;;;;;;;;;5024858;28;20043;-76
2021/07/20 02:28:41;;;;;;;5.45;3.00;;;;;;;;;;5025040;28;20052;-76
2021/07/20 02:31:26;;;;;;;3.60;3.05;;;;;;;;;;5010932;28;20091;-78
2021/07/20 02:34:10;;;;;;;4.07;2.90;;;;;;;;;;5024789;28;20521;-78
2021/07/20 02:36:55;;;;;;;4.07;2.95;;;;;;;;;;5005713;28;20048;-78
2021/07/20 02:39:40;;;;;;;3.15;2.75;;;;;;;;;;5006032;28;20505;-78
2021/07/20 02:42:24;;;;;;;2.88;2.45;;;;;;;;;;5013511;28;20048;-77
2021/07/20 02:45:10;;;;;;;3.88;2.83;;;;;;;;;;5027939;28;20036;-78
2021/07/20 02:47:54;;;;;;;4.28;2.88;;;;;;;;;;5029109;28;20087;-78
2021/07/20 02:50:39;;;;;;;3.50;2.75;;;;;;;;;;5022198;28;20394;-77
2021/07/20 02:53:24;;;;;;;3.35;2.45;;;;;;;;;;5028650;28;20480;-78
2021/07/20 02:56:09;;;;;;;3.88;2.90;;;;;;;;;;5014711;28;20044;-77
2021/07/20 02:58:54;;;;;;;2.90;2.60;;;;;;;;;;5030058;28;20048;-78
2021/07/20 03:01:39;;;;;;;3.75;2.90;;;;;;;;;;5028857;28;20402;-78
2021/07/20 03:04:24;;;;;;;3.45;2.90;;;;;;;;;;5028547;28;20044;-78
2021/07/20 03:07:09;;;;;;;3.83;2.83;;;;;;;;;;5014255;28;20552;-78
2021/07/20 03:09:53;;;;;;;3.55;2.75;;;;;;;;;;5028326;28;20048;-78
2021/07/20 03:12:38;;;;;;;3.58;2.85;;;;;;;;;;5028066;28;20513;-78
2021/07/20 03:15:23;;;;;;;3.58;2.97;;;;;;;;;;5014104;28;20044;-78
2021/07/20 03:18:08;;;;;;;4.05;2.95;;;;;;;;;;5028083;28;20051;-78
2021/07/20 03:20:52;;;;;;;3.72;2.67;;;;;;;;;;5014232;28;20111;-78
2021/07/20 03:23:37;;;;;;;3.72;2.70;;;;;;;;;;5027619;28;20041;-78
2021/07/20 03:26:21;;;;;;;3.40;2.90;;;;;;;;;;5025208;28;20095;-78
2021/07/20 03:29:06;;;;;;;4.30;2.72;;;;;;;;;;5028018;28;20123;-78
2021/07/20 03:31:51;;;;;;;3.00;2.50;;;;;;;;;;5027823;28;20642;-78
2021/07/20 03:34:35;;;;;;;4.88;2.90;;;;;;;;;;5013185;28;20132;-78
2021/07/20 03:37:21;;;;;;;3.30;2.67;;;;;;;;;;5014118;28;20041;-76
2021/07/20 03:40:06;;;;;;;3.47;2.60;;;;;;;;;;5026660;28;20105;-76
2021/07/20 03:42:52;;;;;;;3.90;2.60;;;;;;;;;;5027531;28;20041;-76
2021/07/20 03:45:38;;;;;;;3.30;2.80;;;;;;;;;;5025829;28;20076;-76
2021/07/20 03:48:22;;;;;;;3.20;2.50;;;;;;;;;;5027418;28;20460;-77
2021/07/20 03:51:07;;;;;;;3.60;2.38;;;;;;;;;;5012865;28;20580;-76
2021/07/20 03:53:51;;;;;;;3.47;2.70;;;;;;;;;;5027044;28;20125;-76
2021/07/20 03:56:35;;;;;;;4.97;2.67;;;;;;;;;;5012363;28;20095;-76
2021/07/20 03:59:20;;;;;;;4.15;2.63;;;;;;;;;;5026996;28;20048;-76
2021/07/20 04:02:05;;;;;;;3.55;2.70;;;;;;;;;;5026657;28;20406;-77
2021/07/20 04:04:50;;;;;;;5.22;2.60;;;;;;;;;;5003881;28;20076;-77
2021/07/20 04:07:34;;;;;;;3.80;2.70;;;;;;;;;;5027747;28;20044;-77
2021/07/20 04:10:19;;;;;;;3.42;2.70;;;;;;;;;;5026387;28;20036;-77
2021/07/20 04:13:03;;;;;;;3.33;2.60;;;;;;;;;;5026676;28;20056;-76
2021/07/20 04:16:08;;;;;;;3.50;2.80;;;;;;;;;;5026112;28;20426;-76
2021/07/20 04:18:53;;;;;;;4.40;2.58;;;;;;;;;;5028218;28;20044;-77
2021/07/20 04:21:38;;;;;;;3.00;2.65;;;;;;;;;;5027178;28;20064;-76
2021/07/20 04:24:29;;;;;;;4.13;2.80;;;;;;;;;;5026142;28;20092;-77
2021/07/20 04:27:15;;;;;;;4.10;2.50;;;;;;;;;;5027794;28;20084;-76
2021/07/20 04:29:59;;;;;;;5.25;2.88;;;;;;;;;;5026826;28;20525;-77
2021/07/20 04:32:47;;;;;;;4.82;2.85;;;;;;;;;;5027696;28;20056;-76
2021/07/20 04:35:32;;;;;;;3.45;2.38;;;;;;;;;;5026988;28;20033;-76
2021/07/20 04:38:16;;;;;;;3.65;2.53;;;;;;;;;;5026577;28;20048;-77
2021/07/20 04:41:01;;;;;;;3.63;2.70;;;;;;;;;;5039341;28;20571;-76
2021/07/20 04:43:46;;;;;;;2.83;2.33;;;;;;;;;;5028938;28;20040;-76
2021/07/20 04:46:31;;;;;;;3.70;2.45;;;;;;;;;;5026254;28;20048;-76
2021/07/20 04:49:16;;;;;;;3.33;2.65;;;;;;;;;;5024408;28;20064;-77
2021/07/20 04:52:01;;;;;;;3.17;2.63;;;;;;;;;;5010063;28;20134;-76
2021/07/20 04:54:46;;;;;;;3.58;2.67;;;;;;;;;;5023977;28;20163;-76
2021/07/20 04:57:31;;;;;;;3.63;2.50;;;;;;;;;;5004069;28;20260;-77
2021/07/20 05:00:16;;;;;;;5.07;2.55;;;;;;;;;;5016633;28;20809;-77
2021/07/20 05:03:01;;;;;;;2.58;2.38;;;;;;;;;;5010628;28;20761;-76
2021/07/20 05:05:45;;;;;;;4.22;2.38;;;;;;;;;;5022886;28;20114;-77
2021/07/20 05:08:31;;;;;;;4.15;2.95;;;;;;;;;;5009932;28;20037;-76
2021/07/20 05:11:16;;;;;;;3.95;2.70;;;;;;;;;;5007446;28;20043;-77
2021/07/20 05:14:00;;;;;;;3.58;2.80;;;;;;;;;;5024201;28;20052;-77
2021/07/20 05:16:46;;;;;;;4.57;2.85;;;;;;;;;;5023245;28;20036;-76
2021/07/20 05:19:31;;;;;;;4.43;3.00;;;;;;;;;;5023779;28;20536;-77
2021/07/20 05:22:15;;;;;;;3.72;3.05;;;;;;;;;;5023577;28;20099;-76
2021/07/20 05:25:01;;;;;;;3.40;2.75;;;;;;;;;;5023859;28;20043;-76
2021/07/20 05:27:46;;;;;;;4.03;2.90;;;;;;;;;;5005326;28;20355;-76
2021/07/20 05:30:31;;;;;;;4.32;2.95;;;;;;;;;;5022956;28;20501;-77
2021/07/20 05:33:17;;;;;;;5.45;2.97;;;;;;;;;;5003818;28;20807;-76
2021/07/20 05:36:03;;;;;;;4.32;2.92;;;;;;;;;;4997993;28;20751;-77
2021/07/20 05:38:48;;;;;;;3.67;2.80;;;;;;;;;;5009015;28;20084;-76
2021/07/20 05:41:33;;;;;;;4.65;3.10;;;;;;;;;;5023276;28;20120;-76
2021/07/20 05:44:17;;;;;;;3.80;2.90;;;;;;;;;;5008886;28;20473;-77
2021/07/20 05:47:02;;;;;;;4.00;2.67;;;;;;;;;;5023092;28;20791;-77
2021/07/20 05:49:46;;;;;;;3.80;3.10;;;;;;;;;;5023338;28;20385;-76
2021/07/20 05:52:31;;;;;;;3.80;3.20;;;;;;;;;;5019906;28;20055;-76
2021/07/20 05:55:16;;;;;;;3.42;3.10;;;;;;;;;;5008764;28;20040;-77
2021/07/20 05:58:01;;;;;;;4.40;3.00;;;;;;;;;;5022455;28;20041;-76
2021/07/20 06:00:45;;;;;;;3.45;2.90;;;;;;;;;;5009019;28;20545;-77
2021/07/20 06:03:32;;;;;;;4.30;2.95;;;;;;;;;;5023825;28;20410;-76
2021/07/20 06:06:16;;;;;;;3.72;2.90;;;;;;;;;;5022884;28;20560;-76
2021/07/20 06:09:02;;;;;;;3.95;2.90;;;;;;;;;;5023553;28;20044;-77
2021/07/20 06:11:47;;;;;;;4.72;2.85;;;;;;;;;;5017650;28;20130;-77
2021/07/20 06:14:31;;;;;;;3.67;3.20;;;;;;;;;;5024053;28;20553;-76
2021/07/20 06:17:16;;;;;;;3.92;2.90;;;;;;;;;;5018079;28;20130;-78
2021/07/20 06:20:01;;;;;;;4.32;2.80;;;;;;;;;;5029999;28;20143;-76
2021/07/20 06:22:50;;;;;;;4.70;3.15;;;;;;;;;;5032774;28;20094;-76
2021/07/20 06:25:34;;;;;;;3.53;3.10;;;;;;;;;;5031809;28;20045;-76
2021/07/20 06:28:20;;;;;;;3.60;2.72;;;;;;;;;;5028654;28;20413;-76
2021/07/20 06:31:05;;;;;;;4.68;3.05;;;;;;;;;;5010018;28;20095;-76
2021/07/20 06:33:49;;;;;;;4.55;2.60;;;;;;;;;;5027578;28;20056;-75
2021/07/20 06:36:35;;;;;;;4.72;3.10;;;;;;;;;;5014030;28;20032;-77
2021/07/20 06:39:20;;;;;;;3.85;2.85;;;;;;;;;;5002492;28;20053;-77
2021/07/20 06:42:04;;;;;;;3.00;2.70;;;;;;;;;;5013699;28;20095;-76
2021/07/20 06:44:49;;;;;;;3.40;2.47;;;;;;;;;;5026818;28;20067;-76
2021/07/20 06:47:39;;;;;;;3.85;2.67;;;;;;;;;;5028144;28;20047;-76
2021/07/20 06:50:24;;;;;;;4.07;2.45;;;;;;;;;;5014161;28;20041;-76
2021/07/20 06:53:10;;;;;;;3.95;2.55;;;;;;;;;;5028413;28;20355;-76
2021/07/20 06:55:55;;;;;;;3.80;2.60;;;;;;;;;;5026757;28;20041;-76
2021/07/20 06:58:40;;;;;;;3.25;2.55;;;;;;;;;;5017519;28;20103;-77
2021/07/20 07:01:25;;;;;;;5.25;2.83;;;;;;;;;;5027461;28;20710;-77
2021/07/20 07:04:10;;;;;;;3.47;2.35;;;;;;;;;;5013909;28;20114;-76
2021/07/20 07:06:55;;;;;;;3.40;2.40;;;;;;;;;;5022385;28;20453;-76
2021/07/20 07:09:40;;;;;;;3.15;2.50;;;;;;;;;;5005182;28;20119;-76
2021/07/20 07:12:24;;;;;;;3.53;2.58;;;;;;;;;;5026099;28;20553;-76
2021/07/20 07:15:09;;;;;;;2.70;2.33;;;;;;;;;;5008047;28;20035;-76
2021/07/20 07:17:53;;;;;;;3.13;2.40;;;;;;;;;;5026564;28;20044;-77
2021/07/20 07:20:38;;;;;;;2.83;2.40;;;;;;;;;;5025663;28;20041;-76
2021/07/20 07:23:23;;;;;;;4.10;2.47;;;;;;;;;;5025719;28;20048;-76
2021/07/20 07:26:10;;;;;;;3.20;2.22;;;;;;;;;;5021784;28;20056;-77
2021/07/20 07:28:55;;;;;;;3.22;2.60;;;;;;;;;;5024930;28;20167;-76
2021/07/20 07:31:39;;;;;;;3.22;2.40;;;;;;;;;;5025438;28;20040;-76
2021/07/20 07:34:24;;;;;;;3.58;2.45;;;;;;;;;;5024498;28;20133;-76
2021/07/20 07:37:09;;;;;;;2.67;2.30;;;;;;;;;;5025684;28;20095;-77
2021/07/20 07:39:53;;;;;;;3.58;2.65;;;;;;;;;;5025100;28;20180;-76
2021/07/20 07:42:38;;;;;;;3.17;2.63;;;;;;;;;;5011755;28;20497;-76
2021/07/20 07:45:23;;;;;;;2.83;2.50;;;;;;;;;;5026520;28;20087;-76
2021/07/20 07:48:08;;;;;;;2.70;2.25;;;;;;;;;;5017897;28;20041;-75
2021/07/20 07:50:54;;;;;;;3.00;2.58;;;;;;;;;;4999319;28;20036;-76
2021/07/20 07:53:40;;;;;;;3.47;2.30;;;;;;;;;;5010545;28;20099;-76
2021/07/20 07:56:28;;;;;;;4.00;2.67;;;;;;;;;;5010623;28;20041;-77
2021/07/20 07:59:13;;;;;;;3.58;2.50;;;;;;;;;;5024367;28;20048;-76
2021/07/20 08:01:58;;;;;;;2.67;2.20;;;;;;;;;;5023502;28;20036;-76
2021/07/20 08:04:42;;;;;;;3.70;2.35;;;;;;;;;;5010118;28;20056;-76
2021/07/20 08:07:27;;;;;;;2.95;2.50;;;;;;;;;;5009427;28;20031;-76
2021/07/20 08:10:12;;;;;;;4.60;2.70;;;;;;;;;;5009918;28;20080;-76
2021/07/20 08:12:58;;;;;;;3.15;2.33;;;;;;;;;;5021760;28;20187;-76
2021/07/20 08:15:43;;;;;;;3.70;2.33;;;;;;;;;;5023947;28;20174;-76
2021/07/20 08:18:28;;;;;;;3.00;2.22;;;;;;;;;;5024511;28;20076;-76
2021/07/20 08:21:14;;;;;;;3.80;2.40;;;;;;;;;;5010344;28;20048;-77
2021/07/20 08:24:00;;;;;;;4.15;2.53;;;;;;;;;;5025070;28;20037;-77
2021/07/20 08:26:49;;;;;;;4.15;2.30;;;;;;;;;;5009851;28;20512;-77
2021/07/20 08:29:34;;;;;;;3.20;2.40;;;;;;;;;;5023702;28;20147;-78
2021/07/20 08:32:19;;;;;;;2.75;2.40;;;;;;;;;;5008002;28;20040;-77
2021/07/20 08:35:10;;;;;;;3.58;2.22;;;;;;;;;;5023831;28;20091;-76
2021/07/20 08:37:57;;;;;;;3.65;2.38;;;;;;;;;;5024324;28;20728;-76
2021/07/20 08:41:03;;;;;;;2.95;2.40;;;;;;;;;;5022115;28;20056;-78
2021/07/20 08:44:06;;;;;;;3.70;2.50;;;;;;;;;;5012264;28;20055;-77
2021/07/20 08:46:53;;;;;;;4.40;2.63;;;;;;;;;;5023722;28;20134;-77
2021/07/20 08:49:38;;;;;;;3.83;2.53;;;;;;;;;;5020279;28;20187;-77
2021/07/20 08:52:28;;;;;;;3.10;2.30;;;;;;;;;;5025502;28;20794;-78
2021/07/20 08:55:25;;;;;;;2.97;2.20;;;;;;;;;;5015456;28;20110;-77
2021/07/20 08:58:24;;;;;;;3.00;2.40;;;;;;;;;;5007697;28;20032;-77
2021/07/20 09:01:12;;;;;;;2.97;1.95;;;;;;;;;;5023695;28;20114;-76
2021/07/20 09:04:02;;;;;;;3.55;2.53;;;;;;;;;;5022379;28;20463;-77
2021/07/20 09:06:48;;;;;;;3.03;2.40;;;;;;;;;;5021373;28;20052;-77
2021/07/20 09:09:33;;;;;;;3.53;2.40;;;;;;;;;;5022075;28;20060;-78
2021/07/20 09:12:20;;;;;;;3.88;2.70;;;;;;;;;;5022393;28;20056;-77
2021/07/20 09:15:09;;;;;;;4.43;2.60;;;;;;;;;;5016054;28;20036;-77
2021/07/20 09:18:03;;;;;;;4.13;2.50;;;;;;;;;;5004239;28;20040;-77
2021/07/20 09:20:50;;;;;;;2.72;2.30;;;;;;;;;;5021674;28;20095;-78
2021/07/20 09:23:36;;;;;;;3.38;2.42;;;;;;;;;;5021343;28;20040;-77
2021/07/20 09:26:24;;;;;;;2.97;2.47;;;;;;;;;;5016882;28;20141;-77
2021/07/20 09:29:15;;;;;;;4.15;2.38;;;;;;;;;;5016490;28;20084;-77
2021/07/20 09:32:14;;;;;;;3.13;2.20;;;;;;;;;;5023543;28;20114;-76
2021/07/20 09:35:09;;;;;;;2.78;2.33;;;;;;;;;;5004578;28;20048;-76
2021/07/20 09:37:54;;;;;;;4.28;2.40;;;;;;;;;;5022439;28;20076;-76
2021/07/20 09:40:42;;;;;;;3.15;2.40;;;;;;;;;;5021138;28;20460;-76
2021/07/20 09:43:26;;;;;;;3.28;2.47;;;;;;;;;;5019842;28;20383;-76
2021/07/20 09:46:12;;;;;;;4.47;2.80;;;;;;;;;;5022008;28;20044;-77
2021/07/20 09:49:02;;;;;;;4.10;2.40;;;;;;;;;;5008079;28;20107;-75
2021/07/20 09:51:50;;;;;;;3.72;2.90;;;;;;;;;;5019695;28;20508;-75
2021/07/20 09:54:47;;;;;;;3.95;2.60;;;;;;;;;;5016043;28;20067;-76
2021/07/20 09:57:46;;;;;;;3.72;2.30;;;;;;;;;;5018271;28;20413;-75
2021/07/20 10:00:49;;;;;;;3.58;2.58;;;;;;;;;;5007956;28;20087;-75
2021/07/20 10:03:33;;;;;;;;;;;;;;;;;;5022990;28;20513;-75
2021/07/20 10:06:18;;;;;;;5.45;2.47;;;;;;;;;;5021743;28;20654;-75
2021/07/20 10:09:07;;;;;;;3.42;2.55;;;;;;;;;;5016897;28;20504;-76
2021/07/20 10:11:52;;;;;;;3.60;2.50;;;;;;;;;;5019070;28;20652;-76
2021/07/20 10:14:44;;;;;;;4.95;3.05;;;;;;;;;;5017618;28;20171;-78
2021/07/20 10:17:35;;;;;;;3.70;2.50;;;;;;;;;;5005242;28;20091;-79
2021/07/20 10:20:20;;;;;;;4.80;2.80;;;;;;;;;;4998535;28;20064;-78
2021/07/20 10:23:26;;;;;;;3.58;2.60;;;;;;;;;;5017701;28;20039;-77
2021/07/20 10:26:21;;;;;;;3.80;2.60;;;;;;;;;;4994585;28;20060;-77
2021/07/20 10:29:15;;;;;;;5.22;3.00;;;;;;;;;;5009587;28;20041;-76
2021/07/20 10:32:03;;;;;;;4.47;2.88;;;;;;;;;;4989160;28;20099;-76
2021/07/20 10:34:49;;;;;;;3.20;2.60;;;;;;;;;;5008898;28;20103;-77
2021/07/20 10:37:36;;;;;;;3.47;2.72;;;;;;;;;;5018348;28;20160;-77
2021/07/20 10:40:20;;;;;;;3.53;2.78;;;;;;;;;;5017955;28;20080;-79
2021/07/20 10:43:26;;;;;;;3.03;2.70;;;;;;;;;;5018971;28;20057;-78
2021/07/20 10:46:11;;;;;;;3.17;2.70;;;;;;;;;;5000593;28;20103;-78
2021/07/20 10:48:57;;;;;;;4.28;2.60;;;;;;;;;;5017435;28;20045;-78
2021/07/20 10:51:42;;;;;;;3.10;2.67;;;;;;;;;;5006103;28;20099;-78
2021/07/20 10:54:29;;;;;;;3.75;2.80;;;;;;;;;;5008167;28;20099;-79
2021/07/20 10:57:16;;;;;;;4.10;2.88;;;;;;;;;;5004886;28;20048;-78
2021/07/20 11:00:07;;;;;;;4.95;3.13;;;;;;;;;;4996594;28;20083;-78
2021/07/20 11:03:01;;;;;;;4.40;3.05;;;;;;;;;;5019691;28;20128;-78
2021/07/20 11:05:46;;;;;;;4.72;3.20;;;;;;;;;;5024901;28;20048;-78
2021/07/20 11:08:31;;;;;;;3.00;2.70;;;;;;;;;;5011281;28;20036;-79
2021/07/20 11:11:16;;;;;;;4.47;2.88;;;;;;;;;;5011283;28;20080;-80
2021/07/20 11:14:01;;;;;;;4.45;2.83;;;;;;;;;;5007501;28;20076;-79
2021/07/20 11:16:46;;;;;;;4.65;2.88;;;;;;;;;;5019907;28;20549;-78
2021/07/20 11:19:30;;;;;;;3.55;2.72;;;;;;;;;;5023843;28;20496;-79
2021/07/20 11:22:15;;;;;;;3.65;2.97;;;;;;;;;;5025982;28;20088;-78
2021/07/20 11:25:00;;;;;;;2.80;2.50;;;;;;;;;;5008847;28;20527;-78
2021/07/20 11:27:45;;;;;;;3.35;3.05;;;;;;;;;;5017717;28;20381;-77
2021/07/20 11:30:31;;;;;;;3.35;2.80;;;;;;;;;;5025935;28;20045;-78
2021/07/20 11:33:33;;;;;;;4.28;2.85;;;;;;;;;;5023988;28;20049;-78
2021/07/20 11:36:22;;;;;;;3.75;2.78;;;;;;;;;;5010182;28;20491;-78
2021/07/20 11:39:06;;;;;;;3.92;2.90;;;;;;;;;;5019310;28;20555;-77
2021/07/20 11:42:10;;;;;;;3.85;2.72;;;;;;;;;;5024412;28;20108;-78
2021/07/20 11:44:56;;;;;;;4.32;2.90;;;;;;;;;;5025721;28;20095;-78
2021/07/20 11:47:48;;;;;;;3.50;3.20;;;;;;;;;;5023121;28;20065;-80
2021/07/20 11:50:45;;;;;;;3.45;2.58;;;;;;;;;;5024497;28;20067;-78
2021/07/20 11:53:33;;;;;;;3.25;2.90;;;;;;;;;;5009087;28;20132;-77
2021/07/20 11:56:18;;;;;;;5.18;3.00;;;;;;;;;;5022611;28;20539;-78
2021/07/20 11:59:12;;;;;;;3.30;2.60;;;;;;;;;;5025892;28;20094;-77
2021/07/20 12:01:59;;;;;;;3.75;2.45;;;;;;;;;;5009110;28;20076;-77
2021/07/20 12:04:56;;;;;;;5.00;2.90;;;;;;;;;;5025291;28;20087;-77
2021/07/20 12:07:44;;;;;;;3.92;2.70;;;;;;;;;;5022237;28;20149;-77
2021/07/20 12:10:47;;;;;;;4.53;2.80;;;;;;;;;;5023192;28;20095;-76
2021/07/20 12:13:35;;;;;;;3.40;2.72;;;;;;;;;;5020918;28;20183;-80
2021/07/20 12:16:21;;;;;;;4.88;3.08;;;;;;;;;;5023317;28;20119;-76
2021/07/20 12:19:05;;;;;;;4.40;2.63;;;;;;;;;;5019350;28;20594;-78
2021/07/20 12:21:50;;;;;;;4.72;3.30;;;;;;;;;;5022442;28;20040;-77
2021/07/20 12:24:35;;;;;;;3.90;2.85;;;;;;;;;;5025192;28;20048;-74
2021/07/20 12:27:19;;;;;;;5.93;3.03;;;;;;;;;;5024104;28;20048;-74
2021/07/20 12:30:05;;;;;;;4.13;2.90;;;;;;;;;;5024391;28;20032;-83
2021/07/20 12:32:50;;;;;;;4.70;2.95;;;;;;;;;;5023960;28;20040;-86
2021/07/20 12:35:37;;;;;;;3.80;2.90;;;;;;;;;;5025677;28;20406;-79
2021/07/20 12:38:23;;;;;;;3.00;2.53;;;;;;;;;;5024701;28;20273;-83
2021/07/20 12:41:11;;;;;;;5.30;2.97;;;;;;;;;;5011370;28;20660;-82
2021/07/20 12:43:56;;;;;;;4.68;3.13;;;;;;;;;;5032276;28;20039;-83
2021/07/20 12:46:41;;;;;;;4.95;3.33;;;;;;;;;;5010069;28;20090;-85
2021/07/20 12:49:25;;;;;;;3.45;2.60;;;;;;;;;;5022348;28;20045;-86
2021/07/20 12:52:10;;;;;;;4.97;2.80;;;;;;;;;;5019884;28;20044;-82
2021/07/20 12:54:54;;;;;;;3.75;2.92;;;;;;;;;;5024748;28;20517;-85
2021/07/20 12:57:39;;;;;;;3.70;3.17;;;;;;;;;;5018807;28;20525;-84
2021/07/20 13:00:24;;;;;;;4.05;3.00;;;;;;;;;;5020570;28;20564;-83
2021/07/20 13:03:08;;;;;;;4.00;2.83;;;;;;;;;;5024841;28;20048;-83
2021/07/20 13:05:53;;;;;;;5.40;3.08;;;;;;;;;;5007353;28;20194;-83
2021/07/20 13:08:38;;;;;;;7.30;3.25;;;;;;;;;;5013967;28;20044;-83
2021/07/20 13:11:23;;;;;;;4.25;2.70;;;;;;;;;;4996590;28;20916;-84
2021/07/20 13:14:08;;;;;;;3.53;2.90;;;;;;;;;;5018985;28;20052;-83
2021/07/20 13:16:53;;;;;;;4.50;3.47;;;;;;;;;;5019191;28;20398;-83
2021/07/20 13:19:38;;;;;;;5.63;3.13;;;;;;;;;;5004227;28;20711;-84
2021/07/20 13:22:23;;;;;;;4.07;2.85;;;;;;;;;;5009365;28;20504;-85
2021/07/20 13:25:09;;;;;;;3.42;2.70;;;;;;;;;;5006379;28;20131;-75
2021/07/20 13:27:54;;;;;;;3.78;2.65;;;;;;;;;;4996267;28;20044;-76
2021/07/20 13:30:39;;;;;;;5.13;3.10;;;;;;;;;;5013091;28;20032;-74
2021/07/20 13:33:23;;;;;;;4.05;2.72;;;;;;;;;;5006942;28;20056;-76
2021/07/20 13:36:08;;;;;;;5.38;3.00;;;;;;;;;;5022627;28;20465;-75
2021/07/20 13:38:53;;;;;;;3.60;3.00;;;;;;;;;;5017795;28;20040;-79
2021/07/20 13:41:38;;;;;;;4.22;2.80;;;;;;;;;;5001807;28;20041;-75
2021/07/20 13:44:23;;;;;;;4.35;2.80;;;;;;;;;;5002545;28;20052;-76
2021/07/20 13:47:08;;;;;;;3.80;2.90;;;;;;;;;;5035540;28;20044;-76
2021/07/20 13:49:53;;;;;;;4.32;2.67;;;;;;;;;;5018941;28;20134;-74
2021/07/20 13:52:37;;;;;;;5.80;2.83;;;;;;;;;;5005698;28;20045;-75
2021/07/20 13:55:23;;;;;;;3.75;2.67;;;;;;;;;;5020732;28;22307;-77
2021/07/20 13:58:07;;;;;;;4.38;2.60;;;;;;;;;;4994607;28;20122;-75
2021/07/20 14:00:52;;;;;;;4.53;2.95;;;;;;;;;;5007797;28;20103;-75
2021/07/20 14:03:36;;;;;;;4.07;2.50;;;;;;;;;;5021330;28;20048;-75
2021/07/20 14:06:21;;;;;;;3.88;2.30;;;;;;;;;;5007263;28;20099;-75
2021/07/20 14:09:06;;;;;;;3.50;2.70;;;;;;;;;;5017546;28;20523;-76
2021/07/20 14:11:51;;;;;;;4.15;2.78;;;;;;;;;;5021537;28;20087;-75
2021/07/20 14:14:36;;;;;;;3.13;2.78;;;;;;;;;;5014204;28;20060;-75
2021/07/20 14:17:22;;;;;;;3.65;2.55;;;;;;;;;;5016799;28;20088;-76
2021/07/20 14:20:08;;;;;;;3.78;2.85;;;;;;;;;;5015110;28;20118;-75
2021/07/20 14:22:52;;;;;;;3.58;2.67;;;;;;;;;;5013258;28;20134;-75
2021/07/20 14:25:47;;;;;;;6.38;2.50;;;;;;;;;;5005418;28;20556;-75
2021/07/20 14:28:32;;;;;;;3.78;2.67;;;;;;;;;;5016526;28;20041;-74
2021/07/20 14:31:16;;;;;;;3.42;2.60;;;;;;;;;;5021135;28;20044;-75
2021/07/20 14:34:04;;;;;;;3.83;2.90;;;;;;;;;;5019940;28;20059;-75
2021/07/20 14:36:49;;;;;;;3.60;2.60;;;;;;;;;;5025985;28;20055;-75
2021/07/20 14:39:35;;;;;;;3.30;2.63;;;;;;;;;;5016525;28;20048;-74
2021/07/20 14:42:21;;;;;;;4.35;2.70;;;;;;;;;;5025216;28;20159;-75
2021/07/20 14:45:10;;;;;;;4.53;2.88;;;;;;;;;;5008551;28;20044;-75
2021/07/20 14:47:58;;;;;;;4.50;2.72;;;;;;;;;;5014431;28;20114;-75
2021/07/20 14:50:47;;;;;;;3.60;2.80;;;;;;;;;;5024464;28;20043;-74
2021/07/20 14:53:33;;;;;;;5.20;2.65;;;;;;;;;;5009498;28;20052;-75
2021/07/20 14:56:18;;;;;;;3.65;2.60;;;;;;;;;;5017533;28;20064;-75
2021/07/20 14:59:02;;;;;;;5.00;3.10;;;;;;;;;;5020876;28;20045;-75
2021/07/20 15:01:50;;;;;;;4.63;3.05;;;;;;;;;;5026308;28;20041;-74
2021/07/20 15:04:34;;;;;;;3.92;2.90;;;;;;;;;;5011888;28;20144;-75
2021/07/20 15:07:19;;;;;;;4.30;3.03;;;;;;;;;;5026114;28;20132;-75
2021/07/20 15:10:11;;;;;;;4.97;3.05;;;;;;;;;;5022775;28;20044;-75
2021/07/20 15:12:56;;;;;;;3.97;2.97;;;;;;;;;;5012625;28;20044;-76
2021/07/20 15:15:42;;;;;;;5.63;2.92;;;;;;;;;;5026785;28;20040;-75
2021/07/20 15:18:46;;;;;;;3.30;3.00;;;;;;;;;;5025447;28;20040;-75
2021/07/20 15:21:36;;;;;;;3.70;3.00;;;;;;;;;;5024004;28;20672;-75
2021/07/20 15:24:21;;;;;;;3.30;3.00;;;;;;;;;;5038134;28;20041;-75
2021/07/20 15:27:08;;;;;;;4.28;3.20;;;;;;;;;;5021481;28;20124;-75
2021/07/20 15:29:54;;;;;;;3.85;3.10;;;;;;;;;;5023188;28;20048;-75
2021/07/20 15:32:39;;;;;;;4.07;3.30;;;;;;;;;;5022584;28;20175;-75
2021/07/20 15:35:24;;;;;;;3.70;3.05;;;;;;;;;;5020895;28;20048;-75
2021/07/20 15:38:09;;;;;;;4.68;3.20;;;;;;;;;;5024839;28;20048;-75
2021/07/20 15:40:53;;;;;;;4.47;3.30;;;;;;;;;;5027780;28;21374;-75
2021/07/20 15:43:39;;;;;;;5.25;3.30;;;;;;;;;;5027856;28;20215;-75
2021/07/20 15:46:23;;;;;;;4.03;3.40;;;;;;;;;;5024269;28;20041;-78
2021/07/20 15:49:10;;;;;;;5.03;3.45;;;;;;;;;;5028201;28;20064;-75
2021/07/20 15:51:54;;;;;;;4.93;3.38;;;;;;;;;;5030427;28;20080;-76
2021/07/20 15:54:39;;;;;;;4.45;3.20;;;;;;;;;;5027968;28;20139;-75
2021/07/20 15:57:24;;;;;;;4.25;3.22;;;;;;;;;;5022992;28;20522;-75
2021/07/20 16:00:09;;;;;;;3.85;3.25;;;;;;;;;;5025064;28;20111;-74
2021/07/20 16:02:54;;;;;;;3.90;3.47;;;;;;;;;;5022271;28;20518;-74
2021/07/20 16:05:39;;;;;;;5.68;3.72;;;;;;;;;;5027635;28;20037;-74
2021/07/20 16:08:27;;;;;;;5.25;3.60;;;;;;;;;;5024170;28;20090;-75
2021/07/20 16:11:13;;;;;;;4.78;3.83;;;;;;;;;;5008975;28;20052;-74
2021/07/20 16:13:58;;;;;;;4.18;3.42;;;;;;;;;;5008339;28;20052;-74
2021/07/20 16:16:42;;;;;;;4.78;3.63;;;;;;;;;;5022355;28;20090;-73
2021/07/20 16:19:30;;;;;;;3.90;3.50;;;;;;;;;;5025781;28;20040;-76
2021/07/20 16:22:15;;;;;;;6.30;4.03;;;;;;;;;;5043303;28;20057;-73
2021/07/20 16:25:00;;;;;;;4.63;3.65;;;;;;;;;;5011697;28;20564;-73
2021/07/20 16:27:44;;;;;;;5.07;3.58;;;;;;;;;;5024222;28;20053;-74
2021/07/20 16:30:30;;;;;;;4.07;3.40;;;;;;;;;;5021630;28;20028;-74
2021/07/20 16:33:19;;;;;;;4.03;3.60;;;;;;;;;;5025696;28;20076;-74
2021/07/20 16:36:05;;;;;;;5.68;3.85;;;;;;;;;;5010640;28;20509;-74
2021/07/20 16:38:50;;;;;;;5.82;4.00;;;;;;;;;;5011112;28;20509;-74
2021/07/20 16:41:35;;;;;;;6.13;3.80;;;;;;;;;;5022687;28;20056;-74
2021/07/20 16:44:19;;;;;;;6.00;3.63;;;;;;;;;;5024066;28;20688;-74